createdAt,value
2023-05-15T00:00:02.780Z,29.2
2023-05-15T00:10:02.420Z,29
2023-05-15T00:20:02.222Z,29.1
2023-05-15T00:30:02.837Z,28.9
2023-05-15T00:40:02.491Z,28.8
2023-05-15T00:50:02.388Z,27.6
2023-05-15T01:00:03.144Z,27.6
2023-05-15T01:10:02.809Z,28.3
2023-05-15T01:20:02.722Z,28.3
2023-05-15T01:30:02.488Z,28.6
2023-05-15T01:40:03.168Z,28
2023-05-15T01:50:02.859Z,27.9
2023-05-15T02:00:02.605Z,27.9
2023-05-15T02:10:02.427Z,28.1
2023-05-15T02:20:02.499Z,28.1
2023-05-15T02:30:03.157Z,28.3
2023-05-15T02:40:02.766Z,28.3
2023-05-15T02:50:02.799Z,28.5
2023-05-15T03:00:02.493Z,28.7
2023-05-15T03:10:03.191Z,29
2023-05-15T03:20:03.277Z,29.7
2023-05-15T03:30:03.086Z,29.6
2023-05-15T03:40:02.840Z,29.8
2023-05-15T03:50:02.503Z,29.8
2023-05-15T04:00:03.555Z,30.3
2023-05-15T04:10:02.360Z,31
2023-05-15T04:20:03.295Z,30.1
2023-05-15T04:30:03.002Z,30.1
2023-05-15T04:40:02.815Z,30.3
2023-05-15T04:50:02.480Z,30.4
2023-05-15T05:00:03.163Z,30.8
2023-05-15T05:10:03.017Z,30.9
2023-05-15T05:20:02.861Z,30.9
2023-05-15T05:30:02.503Z,30.9
2023-05-15T05:40:03.327Z,30.8
2023-05-15T05:50:03.019Z,31.2
2023-05-15T06:00:02.652Z,30.3
2023-05-15T06:10:02.371Z,28.3
2023-05-15T06:20:02.416Z,28.7
2023-05-15T06:30:03.216Z,28.4
2023-05-15T06:40:03.016Z,27.9
2023-05-15T06:50:02.719Z,27.8
2023-05-15T07:00:02.478Z,28
2023-05-15T07:10:03.146Z,28
2023-05-15T07:20:02.932Z,28.3
2023-05-15T07:30:02.605Z,28.3
2023-05-15T07:40:02.377Z,28.5
2023-05-15T07:50:03.161Z,28.8
2023-05-15T08:00:03.032Z,29.2
2023-05-15T08:10:02.849Z,29.2
2023-05-15T08:20:02.638Z,29.2
2023-05-15T08:30:02.313Z,29.5
2023-05-15T08:40:03.040Z,30.2
2023-05-15T08:50:02.782Z,30.3
2023-05-15T09:00:02.440Z,30.4
2023-05-15T09:10:03.181Z,30.7
2023-05-15T09:20:02.984Z,30.9
2023-05-15T09:30:02.654Z,30.4
2023-05-15T09:40:02.410Z,30.9
2023-05-15T09:50:03.127Z,30.9
2023-05-15T10:00:02.796Z,31.1
2023-05-15T10:10:02.823Z,31.2
2023-05-15T10:20:03.053Z,30.3
2023-05-15T10:30:02.949Z,30.5
2023-05-15T10:40:02.618Z,30.4
2023-05-15T10:50:02.457Z,30.1
2023-05-15T11:00:03.197Z,30.1
2023-05-15T11:10:04.259Z,29.9
2023-05-15T11:20:03.270Z,29.6
2023-05-15T11:30:03.082Z,29.3
2023-05-15T11:40:02.824Z,29.4
2023-05-15T11:50:02.601Z,29.8
2023-05-15T12:00:02.247Z,29.8
2023-05-15T12:10:02.987Z,28.9
2023-05-15T12:20:02.872Z,28.7
2023-05-15T12:30:02.675Z,28.6
2023-05-15T12:40:02.352Z,28.5
2023-05-15T12:50:02.994Z,28.4
2023-05-15T13:00:02.649Z,28.3
2023-05-15T13:10:02.349Z,28.4
2023-05-15T13:20:03.142Z,28.2
2023-05-15T13:30:02.888Z,28.1
2023-05-15T13:40:02.650Z,27.9
2023-05-15T13:50:02.506Z,27.8
2023-05-15T14:00:03.273Z,27.7
2023-05-15T14:10:03.020Z,27.6
2023-05-15T14:20:02.987Z,27.4
2023-05-15T14:30:02.758Z,27.3
2023-05-15T14:40:02.585Z,27.3
2023-05-15T14:50:02.402Z,27.3
2023-05-15T15:00:03.416Z,27.2
2023-05-15T15:10:03.213Z,27.2
2023-05-15T15:20:03.215Z,27.2
2023-05-15T15:30:03.010Z,27.1
2023-05-15T15:40:02.862Z,27.1
2023-05-15T15:50:02.548Z,27.2
2023-05-15T16:00:02.300Z,27.2
2023-05-15T16:10:12.176Z,27.2
2023-05-15T16:20:02.736Z,27.1
2023-05-15T16:30:02.553Z,26.9
2023-05-15T16:40:02.216Z,26.9
2023-05-15T16:50:03.066Z,27
2023-05-15T17:00:02.824Z,27
2023-05-15T17:10:02.497Z,27
2023-05-15T17:20:03.141Z,27.1
2023-05-15T17:30:03.014Z,27.1
2023-05-15T17:40:02.702Z,27.1
2023-05-15T17:50:02.302Z,27.1
2023-05-15T18:00:02.922Z,27.2
2023-05-15T18:10:02.522Z,27.2
2023-05-15T18:20:02.332Z,27.2
2023-05-15T18:30:03.019Z,27.2
2023-05-15T18:40:02.743Z,27.1
2023-05-15T18:50:02.515Z,27.2
2023-05-15T19:00:03.145Z,27.2
2023-05-15T19:10:03.110Z,27.2
2023-05-15T19:20:02.972Z,27.2
2023-05-15T19:30:02.739Z,27.3
2023-05-15T19:40:02.572Z,27.3
2023-05-15T19:50:02.401Z,27.2
2023-05-15T20:00:03.107Z,27.1
2023-05-15T20:10:02.983Z,27.1
2023-05-15T20:20:02.871Z,27.1
2023-05-15T20:30:02.870Z,27.2
2023-05-15T20:40:02.595Z,27.4
2023-05-15T20:50:02.336Z,29.4
2023-05-15T21:00:03.149Z,29.6
2023-05-15T21:10:02.947Z,29.7
2023-05-15T21:20:02.928Z,29.8
2023-05-15T21:30:02.656Z,29.7
2023-05-15T21:40:02.446Z,29.8
2023-05-15T21:50:03.273Z,29.4
2023-05-15T22:00:03.052Z,28.6
2023-05-15T22:10:02.767Z,28.6
2023-05-15T22:20:02.696Z,27.6
2023-05-15T22:30:02.368Z,27.2
2023-05-15T22:40:03.031Z,27.1
2023-05-15T22:50:02.645Z,27.1
2023-05-15T23:00:02.343Z,29.6
2023-05-15T23:10:03.036Z,29.1
2023-05-15T23:20:02.951Z,29.8
2023-05-15T23:30:02.442Z,29.9
2023-05-15T23:40:03.110Z,29.6
2023-05-15T23:50:02.805Z,30.1
